createdAt,value
2022-12-05T00:03:05.272Z,6.20
2022-12-05T00:07:06.376Z,6.30
2022-12-05T00:11:13.943Z,6.20
2022-12-05T00:15:15.186Z,5.90
2022-12-05T00:19:16.260Z,5.90
2022-12-05T00:23:17.528Z,5.70
2022-12-05T00:27:18.693Z,5.40
2022-12-05T00:31:22.222Z,5.40
2022-12-05T00:35:23.622Z,5.60
2022-12-05T00:39:24.555Z,5.80
2022-12-05T00:43:25.558Z,5.60
2022-12-05T00:47:26.772Z,6.10
2022-12-05T00:51:30.930Z,5.90
2022-12-05T00:55:35.732Z,6.00
2022-12-05T00:59:36.910Z,6.30
2022-12-05T01:03:38.293Z,5.80
2022-12-05T01:07:39.475Z,6.10
2022-12-05T01:11:41.809Z,6.30
2022-12-05T01:15:42.873Z,6.20
2022-12-05T01:19:46.274Z,6.10
2022-12-05T01:23:47.746Z,5.90
2022-12-05T01:27:48.710Z,5.70
2022-12-05T01:31:50.376Z,6.20
2022-12-05T01:35:51.667Z,5.60
2022-12-05T01:39:52.589Z,5.90
2022-12-05T01:44:08.980Z,5.60
2022-12-05T01:48:22.878Z,5.70
2022-12-05T01:52:27.089Z,5.80
2022-12-05T01:56:28.423Z,5.40
2022-12-05T02:00:29.465Z,5.80
2022-12-05T02:04:32.158Z,6.20
2022-12-05T02:08:33.193Z,6.30
2022-12-05T02:12:34.842Z,6.20
2022-12-05T02:16:58.182Z,6.20
2022-12-05T02:21:22.863Z,6.20
2022-12-05T02:25:36.455Z,6.20
2022-12-05T02:30:13.406Z,6.40
2022-12-05T02:34:30.353Z,6.20
2022-12-05T02:38:41.134Z,6.40
2022-12-05T02:42:55.125Z,6.50
2022-12-05T02:46:57.881Z,6.50
2022-12-05T02:51:01.178Z,6.00
2022-12-05T02:55:03.500Z,6.10
2022-12-05T02:59:04.692Z,6.00
2022-12-05T03:03:11.987Z,5.50
2022-12-05T03:07:14.375Z,4.90
2022-12-05T03:11:15.530Z,4.90
2022-12-05T03:15:20.414Z,5.00
2022-12-05T03:19:25.105Z,3.80
2022-12-05T03:23:30.051Z,4.60
2022-12-05T03:27:43.995Z,4.60
2022-12-05T03:31:54.751Z,5.40
2022-12-05T03:36:05.370Z,6.20
2022-12-05T03:40:13.176Z,6.50
2022-12-05T03:44:18.145Z,6.40
2022-12-05T03:48:32.394Z,6.40
2022-12-05T03:52:57.197Z,5.90
2022-12-05T03:56:46.703Z,6.20
2022-12-05T04:00:50.684Z,6.10
2022-12-05T04:05:10.708Z,6.30
2022-12-05T04:09:18.947Z,6.20
2022-12-05T04:13:36.229Z,6.40
2022-12-05T04:17:51.967Z,6.20
2022-12-05T04:21:53.068Z,6.20
2022-12-05T04:26:13.112Z,6.20
2022-12-05T04:30:17.919Z,6.30
2022-12-05T04:34:20.885Z,6.60
2022-12-05T04:38:31.895Z,6.60
2022-12-05T04:42:36.134Z,6.10
2022-12-05T04:46:40.695Z,6.10
2022-12-05T04:50:44.257Z,4.90
2022-12-05T04:54:52.099Z,4.50
2022-12-05T04:58:54.056Z,4.40
2022-12-05T05:03:15.515Z,5.30
2022-12-05T05:07:17.682Z,5.90
2022-12-05T05:11:25.037Z,5.60
2022-12-05T05:15:26.280Z,6.30
2022-12-05T05:19:28.703Z,6.40
2022-12-05T05:23:29.873Z,6.50
2022-12-05T05:27:30.871Z,5.70
2022-12-05T05:31:32.586Z,6.20
2022-12-05T05:35:36.198Z,6.60
2022-12-05T05:39:37.452Z,6.70
2022-12-05T05:43:40.162Z,6.40
2022-12-05T05:47:42.292Z,6.20
2022-12-05T05:51:43.452Z,6.40
2022-12-05T05:55:44.598Z,6.50
2022-12-05T05:59:46.181Z,6.30
2022-12-05T06:03:49.320Z,6.50
2022-12-05T06:07:52.584Z,6.30
2022-12-05T06:11:53.736Z,5.80
2022-12-05T06:15:54.998Z,5.70
2022-12-05T06:19:57.284Z,6.10
2022-12-05T06:23:58.740Z,6.00
2022-12-05T06:28:00.095Z,6.60
2022-12-05T06:32:01.774Z,6.20
2022-12-05T06:36:08.816Z,4.80
2022-12-05T06:40:11.943Z,6.00
2022-12-05T06:44:13.154Z,6.60
2022-12-05T06:48:14.519Z,5.40
2022-12-05T06:52:15.728Z,4.60
2022-12-05T06:56:19.329Z,4.20
2022-12-05T07:00:39.793Z,4.30
2022-12-05T07:04:41.103Z,5.00
2022-12-05T07:08:42.512Z,5.60
2022-12-05T07:12:43.907Z,5.80
2022-12-05T07:16:45.536Z,6.10
2022-12-05T07:21:11.315Z,6.50
2022-12-05T07:24:53.762Z,6.10
2022-12-05T07:28:57.075Z,5.50
2022-12-05T07:32:58.370Z,5.20
2022-12-05T07:37:00.426Z,5.50
2022-12-05T07:41:13.559Z,5.20
2022-12-05T07:45:14.124Z,4.90
2022-12-05T07:49:18.409Z,4.40
2022-12-05T07:53:19.623Z,5.40
2022-12-05T07:57:21.020Z,5.40
2022-12-05T08:01:25.130Z,6.00
2022-12-05T08:05:26.495Z,5.40
2022-12-05T08:09:27.828Z,6.10
2022-12-05T08:13:29.311Z,6.40
2022-12-05T08:17:31.788Z,7.00
2022-12-05T08:21:34.619Z,6.30
2022-12-05T08:25:36.051Z,6.70
2022-12-05T08:29:37.307Z,6.80
2022-12-05T08:33:38.938Z,6.90
2022-12-05T08:37:40.335Z,6.90
2022-12-05T08:41:46.703Z,7.00
2022-12-05T08:45:52.382Z,6.30
2022-12-05T08:49:53.691Z,6.90
2022-12-05T08:53:55.963Z,6.70
2022-12-05T08:57:57.082Z,6.00
2022-12-05T09:01:58.662Z,6.90
2022-12-05T09:06:14.299Z,7.30
2022-12-05T09:10:15.896Z,7.50
2022-12-05T09:14:17.364Z,7.30
2022-12-05T09:18:18.646Z,7.20
2022-12-05T09:22:24.034Z,7.20
2022-12-05T09:26:27.496Z,7.10
2022-12-05T09:30:28.793Z,6.60
2022-12-05T09:34:30.764Z,6.50
2022-12-05T09:38:32.688Z,6.50
2022-12-05T09:42:59.031Z,6.60
2022-12-05T09:47:06.908Z,7.40
2022-12-05T09:51:10.226Z,7.50
2022-12-05T09:55:15.331Z,7.90
2022-12-05T09:59:19.462Z,7.80
2022-12-05T10:03:42.768Z,7.80
2022-12-05T10:07:56.854Z,7.80
2022-12-05T10:12:20.441Z,7.80
2022-12-05T10:16:25.439Z,7.50
2022-12-05T10:20:30.375Z,7.70
2022-12-05T10:24:35.516Z,7.70
2022-12-05T10:28:43.822Z,8.00
2022-12-05T10:32:57.241Z,7.60
2022-12-05T10:37:02.418Z,7.40
2022-12-05T10:41:06.924Z,7.80
2022-12-05T10:45:14.394Z,8.20
2022-12-05T10:49:15.883Z,8.10
2022-12-05T10:53:21.025Z,8.00
2022-12-05T10:57:26.134Z,8.50
2022-12-05T11:01:28.416Z,8.60
2022-12-05T11:05:32.304Z,7.90
2022-12-05T11:09:37.033Z,8.60
2022-12-05T11:13:42.081Z,9.20
2022-12-05T11:17:43.543Z,9.30
2022-12-05T11:21:45.124Z,9.60
2022-12-05T11:25:46.492Z,8.90
2022-12-05T11:30:03.712Z,9.20
2022-12-05T11:34:20.090Z,9.10
2022-12-05T11:38:25.013Z,8.70
2022-12-05T11:42:32.683Z,8.60
2022-12-05T11:46:45.514Z,8.30
2022-12-05T11:51:02.448Z,7.80
2022-12-05T11:55:16.107Z,7.00
2022-12-05T11:59:21.035Z,6.20
2022-12-05T12:03:33.857Z,7.30
2022-12-05T12:08:01.683Z,6.60
2022-12-05T12:12:26.668Z,6.80
2022-12-05T12:16:49.999Z,7.50
2022-12-05T12:20:58.062Z,7.20
2022-12-05T12:25:23.157Z,8.20
2022-12-05T12:29:45.918Z,8.20
2022-12-05T12:33:57.012Z,7.20
2022-12-05T12:38:10.905Z,7.00
2022-12-05T12:42:22.246Z,6.90
2022-12-05T12:46:49.909Z,7.30
2022-12-05T12:50:53.538Z,8.20
2022-12-05T12:55:18.275Z,7.70
2022-12-05T12:59:26.540Z,7.70
2022-12-05T13:03:48.371Z,8.20
2022-12-05T13:07:57.453Z,8.80
2022-12-05T13:12:02.384Z,8.10
2022-12-05T13:16:07.211Z,8.50
2022-12-05T13:20:18.216Z,8.00
2022-12-05T13:24:22.281Z,7.00
2022-12-05T13:28:30.082Z,6.70
2022-12-05T13:32:35.633Z,6.70
2022-12-05T13:36:59.958Z,6.30
2022-12-05T13:41:19.601Z,6.40
2022-12-05T13:45:21.918Z,6.60
2022-12-05T13:49:45.062Z,7.60
2022-12-05T13:53:50.097Z,7.10
2022-12-05T13:57:55.843Z,7.10
2022-12-05T14:01:57.151Z,7.20
2022-12-05T14:05:58.573Z,7.50
2022-12-05T14:10:00.456Z,7.30
2022-12-05T14:14:04.917Z,7.80
2022-12-05T14:18:17.605Z,6.60
2022-12-05T14:22:28.395Z,7.50
2022-12-05T14:26:39.125Z,7.80
2022-12-05T14:30:47.451Z,8.00
2022-12-05T14:34:58.538Z,7.70
2022-12-05T14:39:00.000Z,8.00
2022-12-05T14:43:24.117Z,8.30
2022-12-05T14:47:32.423Z,8.30
2022-12-05T14:51:37.584Z,8.40
2022-12-05T14:55:38.927Z,8.30
2022-12-05T14:59:46.806Z,8.30
2022-12-05T15:04:10.972Z,7.80
2022-12-05T15:08:15.278Z,7.90
2022-12-05T15:12:36.487Z,8.20
2022-12-05T15:16:41.611Z,8.00
2022-12-05T15:21:11.265Z,8.00
2022-12-05T15:25:31.661Z,7.90
2022-12-05T15:29:33.307Z,8.10
2022-12-05T15:33:34.902Z,8.20
2022-12-05T15:37:55.190Z,8.00
2022-12-05T15:41:57.414Z,8.00
2022-12-05T15:46:11.675Z,8.40
2022-12-05T15:50:15.659Z,8.20
2022-12-05T15:54:24.888Z,8.50
2022-12-05T15:58:33.397Z,8.50
2022-12-05T16:02:44.405Z,8.60
2022-12-05T16:06:52.250Z,8.60
2022-12-05T16:10:53.665Z,8.70
2022-12-05T16:15:00.361Z,8.60
2022-12-05T16:19:07.542Z,8.70
2022-12-05T16:23:24.324Z,8.70
2022-12-05T16:27:34.908Z,8.50
2022-12-05T16:31:36.531Z,8.00
2022-12-05T16:35:43.412Z,7.70
2022-12-05T16:39:45.830Z,8.00
2022-12-05T16:43:47.268Z,7.20
2022-12-05T16:47:55.055Z,7.20
2022-12-05T16:52:03.249Z,8.00
2022-12-05T16:56:06.623Z,6.60
2022-12-05T17:00:16.188Z,7.30
2022-12-05T17:04:17.635Z,7.90
2022-12-05T17:08:19.014Z,8.20
2022-12-05T17:12:24.342Z,8.30
2022-12-05T17:16:26.619Z,8.20
2022-12-05T17:20:28.280Z,8.20
2022-12-05T17:24:29.549Z,8.30
2022-12-05T17:28:31.081Z,8.50
2022-12-05T17:32:32.610Z,8.60
2022-12-05T17:36:34.600Z,7.20
2022-12-05T17:40:37.240Z,7.80
2022-12-05T17:44:38.724Z,7.50
2022-12-05T17:48:39.916Z,7.90
2022-12-05T17:52:41.880Z,8.20
2022-12-05T17:56:43.143Z,8.20
2022-12-05T18:00:46.163Z,7.90
2022-12-05T18:04:47.801Z,8.10
2022-12-05T18:08:49.245Z,8.30
2022-12-05T18:12:51.134Z,8.10
2022-12-05T18:16:52.745Z,8.60
2022-12-05T18:20:54.377Z,8.50
2022-12-05T18:24:57.694Z,8.50
2022-12-05T18:28:59.078Z,8.50
2022-12-05T18:33:00.482Z,8.40
2022-12-05T18:37:01.843Z,8.60
2022-12-05T18:41:05.508Z,8.50
2022-12-05T18:45:07.888Z,8.60
2022-12-05T18:49:12.463Z,8.60
2022-12-05T18:53:13.751Z,8.40
2022-12-05T18:57:15.121Z,8.50
2022-12-05T19:01:16.359Z,8.70
2022-12-05T19:05:18.893Z,8.40
2022-12-05T19:09:22.360Z,8.50
2022-12-05T19:13:24.005Z,8.70
2022-12-05T19:17:25.576Z,8.70
2022-12-05T19:21:30.300Z,8.70
2022-12-05T19:25:31.622Z,8.10
2022-12-05T19:29:32.851Z,8.00
2022-12-05T19:33:37.285Z,8.50
2022-12-05T19:37:38.932Z,8.90
2022-12-05T19:41:41.062Z,8.80
2022-12-05T19:45:42.388Z,8.80
2022-12-05T19:49:43.880Z,8.80
2022-12-05T19:53:47.023Z,8.70
2022-12-05T19:57:48.431Z,8.90
2022-12-05T20:01:50.398Z,8.80
2022-12-05T20:05:58.840Z,8.90
2022-12-05T20:10:00.497Z,8.90
2022-12-05T20:14:02.047Z,8.80
2022-12-05T20:18:03.364Z,8.70
2022-12-05T20:22:04.760Z,8.50
2022-12-05T20:26:11.869Z,8.30
2022-12-05T20:30:13.413Z,8.50
2022-12-05T20:34:15.016Z,8.20
2022-12-05T20:38:16.279Z,8.10
2022-12-05T20:42:17.702Z,8.30
2022-12-05T20:46:21.411Z,7.60
2022-12-05T20:50:22.802Z,7.90
2022-12-05T20:54:24.320Z,8.30
2022-12-05T20:58:25.571Z,8.30
2022-12-05T21:02:27.038Z,8.00
2022-12-05T21:06:31.223Z,8.00
2022-12-05T21:10:32.557Z,8.50
2022-12-05T21:14:34.043Z,8.10
2022-12-05T21:18:35.863Z,8.20
2022-12-05T21:22:37.151Z,8.00
2022-12-05T21:26:39.256Z,7.70
2022-12-05T21:30:40.962Z,7.50
2022-12-05T21:34:42.379Z,7.30
2022-12-05T21:38:43.895Z,7.10
2022-12-05T21:42:45.040Z,6.90
2022-12-05T21:46:46.593Z,6.90
2022-12-05T21:50:48.408Z,6.70
2022-12-05T21:54:49.487Z,7.50
2022-12-05T21:58:51.437Z,7.10
2022-12-05T22:02:53.834Z,7.10
2022-12-05T22:06:54.976Z,6.50
2022-12-05T22:11:07.514Z,7.00
2022-12-05T22:15:09.813Z,7.30
2022-12-05T22:19:10.904Z,7.00
2022-12-05T22:23:16.613Z,6.70
2022-12-05T22:27:15.333Z,6.80
2022-12-05T22:31:17.885Z,6.80
2022-12-05T22:35:19.057Z,7.30
2022-12-05T22:39:20.219Z,6.70
2022-12-05T22:43:22.043Z,6.90
2022-12-05T22:47:23.173Z,6.80
2022-12-05T22:51:26.110Z,6.30
2022-12-05T22:55:27.218Z,6.70
2022-12-05T22:59:28.488Z,6.80
2022-12-05T23:03:29.853Z,6.60
2022-12-05T23:07:31.241Z,6.20
2022-12-05T23:11:32.735Z,6.90
2022-12-05T23:15:35.837Z,6.60
2022-12-05T23:19:36.924Z,6.70
2022-12-05T23:23:39.590Z,6.50
2022-12-05T23:27:40.883Z,6.90
2022-12-05T23:31:42.719Z,6.30
2022-12-05T23:35:44.112Z,6.40
2022-12-05T23:39:45.190Z,6.40
2022-12-05T23:43:48.909Z,5.90
2022-12-05T23:47:50.113Z,5.70
2022-12-05T23:51:51.962Z,6.40
2022-12-05T23:55:53.067Z,5.40
2022-12-05T23:59:54.455Z,6.00
